Time;durP1;ratioP1;P1;durP2;ratioP2;P2;SDS_P1;SDS_P2;PMS_P1;PMS_P2;Temp;Humidity;BMP_temperature;BMP_pressure;BME280_temperature;BME280_humidity;BME280_pressure;Samples;Min_cycle;Max_cycle;Signal;HPM_P1;HPM_P2
2022/08/26 00:00:45;;;;;;;29.77;24.98;;;22.10;99.90;;;;;;5111022;27;20062;-70
2022/08/26 00:03:12;;;;;;;28.17;24.00;;;22.00;99.90;;;;;;5092118;27;20043;-70
2022/08/26 00:05:39;;;;;;;28.85;22.23;;;22.00;99.90;;;;;;5109329;27;20388;-70
2022/08/26 00:08:06;;;;;;;25.63;21.95;;;22.00;99.90;;;;;;5110944;27;20047;-70
2022/08/26 00:10:31;;;;;;;34.28;21.52;;;22.00;99.90;;;;;;5132473;27;20047;-70
2022/08/26 00:12:57;;;;;;;25.33;19.55;;;22.00;99.90;;;;;;5128642;27;20114;-70
2022/08/26 00:15:23;;;;;;;24.30;18.27;;;22.00;99.90;;;;;;5126894;27;20508;-70
2022/08/26 00:17:50;;;;;;;26.85;18.88;;;22.00;99.90;;;;;;5130673;27;20051;-70
2022/08/26 00:20:20;;;;;;;29.92;19.15;;;22.00;99.90;;;;;;5129033;27;20759;-70
2022/08/26 00:22:46;;;;;;;28.67;18.25;;;22.00;99.90;;;;;;5129926;27;20465;-70
2022/08/26 00:25:12;;;;;;;25.13;17.25;;;21.90;99.90;;;;;;5111851;27;20122;-70
2022/08/26 00:27:38;;;;;;;29.25;19.05;;;21.90;99.90;;;;;;5095076;27;20080;-70
2022/08/26 00:30:08;;;;;;;22.33;16.75;;;21.90;99.90;;;;;;5116824;27;20127;-71
2022/08/26 00:32:34;;;;;;;26.08;17.50;;;21.90;99.90;;;;;;5115436;27;20043;-71
2022/08/26 00:35:01;;;;;;;28.35;18.95;;;21.90;99.90;;;;;;5113650;27;20639;-70
2022/08/26 00:37:26;;;;;;;30.88;18.38;;;21.90;99.90;;;;;;5129866;27;20065;-71
2022/08/26 00:39:53;;;;;;;27.85;17.42;;;21.90;99.90;;;;;;5122766;27;20047;-71
2022/08/26 00:42:19;;;;;;;31.52;18.92;;;21.90;99.90;;;;;;5091297;27;20054;-70
2022/08/26 00:44:45;;;;;;;29.00;18.58;;;21.90;99.90;;;;;;5110740;27;20043;-71
2022/08/26 00:47:26;;;;;;;23.50;18.23;;;21.90;99.90;;;;;;5106022;27;20047;-72
2022/08/26 00:49:52;;;;;;;23.30;17.15;;;21.80;99.90;;;;;;5128034;27;20114;-71
2022/08/26 00:52:20;;;;;;;28.95;18.40;;;21.80;99.90;;;;;;5130014;27;20096;-71
2022/08/26 00:55:01;;;;;;;33.95;17.63;;;21.80;99.90;;;;;;5130701;27;20078;-70
2022/08/26 00:57:27;;;;;;;26.25;16.75;;;21.80;99.90;;;;;;5126885;27;20046;-71
2022/08/26 00:59:57;;;;;;;27.23;17.73;;;21.70;99.90;;;;;;5102990;27;20058;-71
2022/08/26 01:02:23;;;;;;;33.03;16.20;;;21.70;99.90;;;;;;5126937;27;20446;-71
2022/08/26 01:04:53;;;;;;;29.20;15.70;;;21.70;99.90;;;;;;5109741;27;20043;-72
2022/08/26 01:07:20;;;;;;;28.83;16.85;;;21.70;99.90;;;;;;5125574;27;20031;-71
2022/08/26 01:09:46;;;;;;;26.00;15.65;;;21.70;99.90;;;;;;5127374;27;20437;-70
2022/08/26 01:12:13;;;;;;;28.23;15.55;;;21.70;99.90;;;;;;5107207;27;20422;-71
2022/08/26 01:14:39;;;;;;;25.52;15.10;;;21.70;99.90;;;;;;5113724;27;20131;-71
2022/08/26 01:17:07;;;;;;;29.02;15.35;;;21.70;99.90;;;;;;5115489;27;20157;-70
2022/08/26 01:19:48;;;;;;;25.35;15.35;;;21.60;99.90;;;;;;5111899;27;20096;-70
2022/08/26 01:22:23;;;;;;;30.17;16.52;;;21.60;99.90;;;;;;5119476;27;20412;-70
2022/08/26 01:24:50;;;;;;;30.70;15.88;;;21.60;99.90;;;;;;5133010;27;20501;-70
2022/08/26 01:27:18;;;;;;;28.85;15.88;;;21.60;99.90;;;;;;5114099;27;20038;-71
2022/08/26 01:29:47;;;;;;;28.85;16.73;;;21.60;99.90;;;;;;5144811;27;20043;-70
2022/08/26 01:32:18;;;;;;;36.70;17.10;;;21.60;99.90;;;;;;5126661;27;20039;-71
2022/08/26 01:34:46;;;;;;;26.55;15.75;;;21.60;99.90;;;;;;5099654;27;20039;-70
2022/08/26 01:37:14;;;;;;;28.67;16.55;;;21.60;99.90;;;;;;5129469;27;20086;-71
2022/08/26 01:39:40;;;;;;;25.58;15.48;;;21.60;99.90;;;;;;5126532;27;20614;-70
2022/08/26 01:42:10;;;;;;;29.33;16.48;;;21.60;99.90;;;;;;5127358;27;20555;-71
2022/08/26 01:44:44;;;;;;;27.10;14.75;;;21.60;99.90;;;;;;5110672;27;20059;-71
2022/08/26 01:47:11;;;;;;;33.65;16.33;;;21.60;99.90;;;;;;5129002;27;20074;-71
2022/08/26 01:49:38;;;;;;;27.83;17.67;;;21.60;99.90;;;;;;5130453;27;20082;-71
2022/08/26 01:52:07;;;;;;;27.13;15.68;;;21.60;99.90;;;;;;5111218;27;20078;-71
2022/08/26 01:54:33;;;;;;;27.60;15.15;;;21.60;99.90;;;;;;5113206;27;20043;-71
2022/08/26 01:57:00;;;;;;;30.33;14.70;;;21.60;99.90;;;;;;5131578;27;20046;-72
2022/08/26 01:59:27;;;;;;;29.30;14.93;;;21.60;99.90;;;;;;5123737;27;20043;-71
2022/08/26 02:01:52;;;;;;;26.20;15.45;;;21.50;99.90;;;;;;5110442;27;20122;-72
2022/08/26 02:04:26;;;;;;;31.52;17.13;;;21.50;99.90;;;;;;5089613;27;20670;-72
2022/08/26 02:06:53;;;;;;;28.35;15.93;;;21.50;99.90;;;;;;5126769;27;20043;-70
2022/08/26 02:09:20;;;;;;;32.58;17.50;;;21.50;99.90;;;;;;5133925;27;20039;-70
2022/08/26 02:11:46;;;;;;;32.67;15.52;;;21.50;99.90;;;;;;5133824;27;20054;-70
2022/08/26 02:14:17;;;;;;;29.88;15.57;;;21.50;99.90;;;;;;5134445;27;20078;-70
2022/08/26 02:16:45;;;;;;;;;;;21.50;99.90;;;;;;5138797;27;20054;-70
2022/08/26 02:19:17;;;;;;;27.38;14.55;;;21.50;99.90;;;;;;5135868;27;19976;-71
2022/08/26 02:21:45;;;;;;;28.52;15.15;;;21.50;99.90;;;;;;5109046;27;20518;-70
2022/08/26 02:24:17;;;;;;;25.60;14.43;;;21.50;99.90;;;;;;5122996;27;20043;-71
2022/08/26 02:26:45;;;;;;;28.95;13.95;;;21.40;99.90;;;;;;5130233;27;20035;-71
2022/08/26 02:29:16;;;;;;;24.25;13.38;;;21.40;99.90;;;;;;5127000;27;20039;-71
2022/08/26 02:31:42;;;;;;;26.80;14.52;;;21.40;99.90;;;;;;5123017;27;20039;-70
2022/08/26 02:34:14;;;;;;;28.70;14.98;;;21.40;99.90;;;;;;5128776;27;20035;-71
2022/08/26 02:36:39;;;;;;;26.83;14.93;;;21.40;99.90;;;;;;5127561;27;20043;-71
2022/08/26 02:39:06;;;;;;;27.45;14.57;;;21.40;99.90;;;;;;5110128;27;20058;-71
2022/08/26 02:41:35;;;;;;;32.03;14.75;;;21.40;99.90;;;;;;5140498;27;20042;-71
2022/08/26 02:44:01;;;;;;;26.42;14.50;;;21.30;99.90;;;;;;5127791;27;20515;-70
2022/08/26 02:46:26;;;;;;;29.20;13.75;;;21.30;99.90;;;;;;5129405;27;20043;-72
2022/08/26 02:48:52;;;;;;;28.40;13.63;;;21.30;99.90;;;;;;5127818;27;20043;-70
2022/08/26 02:51:18;;;;;;;26.77;13.05;;;21.30;99.90;;;;;;5109015;27;20042;-71
2022/08/26 02:53:43;;;;;;;25.60;13.88;;;21.30;99.90;;;;;;5125704;27;20042;-71
2022/08/26 02:56:09;;;;;;;24.33;12.57;;;21.30;99.90;;;;;;5130651;27;20369;-70
2022/08/26 02:58:35;;;;;;;23.95;11.50;;;21.30;99.90;;;;;;5140301;27;20849;-71
2022/08/26 03:01:06;;;;;;;26.83;12.32;;;21.30;99.90;;;;;;5107716;27;20488;-71
2022/08/26 03:03:32;;;;;;;26.02;11.30;;;21.30;99.90;;;;;;5126953;27;20047;-70
2022/08/26 03:05:58;;;;;;;25.80;10.70;;;21.30;99.90;;;;;;5112877;27;20046;-70
2022/08/26 03:08:24;;;;;;;19.77;11.13;;;21.30;99.90;;;;;;5125121;27;20042;-71
2022/08/26 03:10:49;;;;;;;19.27;11.40;;;21.30;99.90;;;;;;5108362;27;20099;-69
2022/08/26 03:13:16;;;;;;;23.45;10.90;;;21.30;99.90;;;;;;5128626;27;20056;-66
2022/08/26 03:15:41;;;;;;;23.40;10.25;;;21.20;99.90;;;;;;5109758;27;20043;-66
2022/08/26 03:18:07;;;;;;;22.30;11.00;;;21.20;99.90;;;;;;5108627;27;20037;-66
2022/08/26 03:20:33;;;;;;;20.60;9.75;;;21.20;99.90;;;;;;5112987;27;20035;-67
2022/08/26 03:22:59;;;;;;;24.10;10.40;;;21.20;99.90;;;;;;5115051;27;20095;-66
2022/08/26 03:25:25;;;;;;;21.17;9.18;;;21.20;99.90;;;;;;5128616;27;20035;-67
2022/08/26 03:27:52;;;;;;;21.38;10.38;;;21.20;99.90;;;;;;5095693;27;21491;-66
2022/08/26 03:33:03;;;;;;;21.73;10.38;;;21.20;99.90;;;;;;5125986;27;20073;-67
2022/08/26 03:35:31;;;;;;;23.67;9.38;;;21.20;99.90;;;;;;5128251;27;20455;-67
2022/08/26 03:37:57;;;;;;;22.65;9.45;;;21.10;99.90;;;;;;5112473;27;20130;-66
2022/08/26 03:40:23;;;;;;;16.80;8.40;;;21.10;99.90;;;;;;5134429;27;20051;-66
2022/08/26 03:42:49;;;;;;;21.15;8.85;;;21.20;99.90;;;;;;5098259;27;21475;-67
2022/08/26 03:45:16;;;;;;;18.42;8.70;;;21.20;99.90;;;;;;5092960;28;20051;-66
2022/08/26 03:47:43;;;;;;;18.20;8.02;;;21.10;99.90;;;;;;5086766;28;20048;-67
2022/08/26 03:50:11;;;;;;;20.88;9.10;;;21.10;99.90;;;;;;5085252;28;20127;-67
2022/08/26 03:52:37;;;;;;;20.75;7.97;;;21.10;99.90;;;;;;5087524;28;20032;-66
2022/08/26 03:55:05;;;;;;;22.80;8.95;;;21.10;99.90;;;;;;5088697;28;20044;-66
2022/08/26 03:57:31;;;;;;;22.88;8.73;;;21.10;99.90;;;;;;5089363;28;20036;-66
2022/08/26 03:59:57;;;;;;;20.30;8.95;;;21.10;99.90;;;;;;5088828;28;20239;-66
2022/08/26 04:02:23;;;;;;;20.30;8.10;;;21.10;99.90;;;;;;5088951;28;20450;-66
2022/08/26 04:04:49;;;;;;;17.20;8.38;;;21.10;99.90;;;;;;5086898;28;20048;-66
2022/08/26 04:07:14;;;;;;;27.45;8.52;;;21.00;99.90;;;;;;5088123;28;20550;-67
2022/08/26 04:09:40;;;;;;;19.60;7.90;;;21.00;99.90;;;;;;5087866;28;20043;-67
2022/08/26 04:12:06;;;;;;;19.58;8.52;;;21.10;99.90;;;;;;5090470;28;20044;-66
2022/08/26 04:14:34;;;;;;;17.58;8.38;;;21.00;99.90;;;;;;5090289;28;20408;-67
2022/08/26 04:17:00;;;;;;;20.92;8.13;;;20.90;99.90;;;;;;5089072;28;20036;-66
2022/08/26 04:19:26;;;;;;;17.70;7.68;;;20.90;99.90;;;;;;5088437;28;20100;-66
2022/08/26 04:21:53;;;;;;;17.70;7.75;;;20.90;99.90;;;;;;5087860;28;20036;-66
2022/08/26 04:24:21;;;;;;;21.20;7.47;;;20.80;99.90;;;;;;5089315;28;20048;-66
2022/08/26 04:26:47;;;;;;;17.33;7.35;;;20.80;99.90;;;;;;5087542;28;20044;-66
2022/08/26 04:29:19;;;;;;;18.73;7.50;;;20.80;99.90;;;;;;5087762;28;20149;-67
2022/08/26 04:31:46;;;;;;;25.15;7.93;;;20.70;99.90;;;;;;5087731;28;20119;-66
2022/08/26 04:34:13;;;;;;;22.95;7.55;;;20.70;99.90;;;;;;5087625;28;20065;-67
2022/08/26 04:36:39;;;;;;;20.02;7.18;;;20.70;99.90;;;;;;5088388;28;20051;-67
2022/08/26 04:39:06;;;;;;;21.10;7.78;;;20.70;99.90;;;;;;5082613;28;20112;-66
2022/08/26 04:41:32;;;;;;;17.63;7.35;;;20.70;99.90;;;;;;5083661;27;20044;-67
2022/08/26 04:43:57;;;;;;;18.15;6.65;;;20.60;99.90;;;;;;5098794;27;20059;-67
2022/08/26 04:46:24;;;;;;;22.10;7.35;;;20.60;99.90;;;;;;5102055;27;21853;-66
2022/08/26 04:48:52;;;;;;;20.20;6.72;;;20.60;99.90;;;;;;5115252;27;20714;-67
2022/08/26 04:51:19;;;;;;;20.20;6.80;;;20.60;99.90;;;;;;5107108;27;20035;-66
2022/08/26 04:53:45;;;;;;;18.92;6.00;;;20.60;99.90;;;;;;5109215;27;20055;-66
2022/08/26 04:56:11;;;;;;;22.05;7.85;;;20.60;99.90;;;;;;5141164;27;20092;-67
2022/08/26 04:58:37;;;;;;;20.98;7.30;;;20.60;99.90;;;;;;5109050;27;20066;-67
2022/08/26 05:01:03;;;;;;;18.05;6.75;;;20.60;99.90;;;;;;5126001;27;20142;-66
2022/08/26 05:03:29;;;;;;;17.45;6.35;;;20.50;99.90;;;;;;5121567;27;20043;-66
2022/08/26 05:05:56;;;;;;;19.23;7.22;;;20.50;99.90;;;;;;5142197;27;20589;-66
2022/08/26 05:08:23;;;;;;;21.60;7.75;;;20.50;99.90;;;;;;5084362;27;20052;-66
2022/08/26 05:10:51;;;;;;;20.40;7.30;;;20.50;99.90;;;;;;5141459;27;20053;-67
2022/08/26 05:13:19;;;;;;;25.95;6.97;;;20.50;99.90;;;;;;5093312;27;20047;-66
2022/08/26 05:15:46;;;;;;;21.00;7.63;;;20.50;99.90;;;;;;5126834;27;20055;-67
2022/08/26 05:18:13;;;;;;;20.52;6.70;;;20.60;99.90;;;;;;5107065;27;20540;-66
2022/08/26 05:20:45;;;;;;;22.83;6.88;;;20.50;99.90;;;;;;5136954;27;20492;-66
2022/08/26 05:23:11;;;;;;;26.58;7.97;;;20.60;99.90;;;;;;5106637;27;20043;-66
2022/08/26 05:25:42;;;;;;;19.25;6.35;;;20.60;99.90;;;;;;5122790;27;20065;-67
2022/08/26 05:28:09;;;;;;;21.98;7.05;;;20.60;99.90;;;;;;5126713;27;20120;-67
2022/08/26 05:30:35;;;;;;;19.67;6.03;;;20.60;99.90;;;;;;5088430;27;20043;-66
2022/08/26 05:33:01;;;;;;;19.88;6.38;;;20.50;99.90;;;;;;5117614;27;20050;-66
2022/08/26 05:35:32;;;;;;;22.17;6.47;;;20.60;99.90;;;;;;5125966;27;20046;-66
2022/08/26 05:38:07;;;;;;;18.92;5.90;;;20.60;99.90;;;;;;5104734;27;20122;-66
2022/08/26 05:40:41;;;;;;;21.27;6.22;;;20.60;99.90;;;;;;5138487;27;20072;-66
2022/08/26 05:43:09;;;;;;;19.60;6.10;;;20.60;99.90;;;;;;5121668;27;20058;-67
2022/08/26 05:45:40;;;;;;;18.90;6.15;;;20.60;99.90;;;;;;5126374;27;20497;-66
2022/08/26 05:48:09;;;;;;;19.40;5.38;;;20.60;99.90;;;;;;5108821;27;20043;-66
2022/08/26 05:50:40;;;;;;;15.60;5.57;;;20.60;99.90;;;;;;5088201;27;20491;-66
2022/08/26 05:53:08;;;;;;;19.13;5.63;;;20.60;99.90;;;;;;5125224;27;20038;-66
2022/08/26 05:55:39;;;;;;;21.05;5.75;;;20.60;99.90;;;;;;5104686;27;20051;-67
2022/08/26 05:58:06;;;;;;;18.15;5.15;;;20.60;99.90;;;;;;5136338;27;20517;-66
2022/08/26 06:00:32;;;;;;;19.05;5.85;;;20.70;99.90;;;;;;5102459;27;20047;-66
2022/08/26 06:02:57;;;;;;;15.63;5.13;;;20.70;99.90;;;;;;5106072;27;20604;-66
2022/08/26 06:05:23;;;;;;;16.27;5.25;;;20.70;99.90;;;;;;5127187;27;20047;-66
2022/08/26 06:10:34;;;;;;;17.55;4.85;;;20.70;99.90;;;;;;5136119;27;20053;-66
2022/08/26 06:13:00;;;;;;;18.88;4.45;;;20.70;99.90;;;;;;5106617;27;20399;-66
2022/08/26 06:15:26;;;;;;;15.73;4.47;;;20.70;99.90;;;;;;5125059;27;20039;-66
2022/08/26 06:17:52;;;;;;;16.98;4.47;;;20.70;99.90;;;;;;5134918;27;20596;-66
2022/08/26 06:20:18;;;;;;;17.20;4.07;;;20.70;99.90;;;;;;5122536;27;20290;-66
2022/08/26 06:25:37;;;;;;;20.33;4.80;;;20.60;99.90;;;;;;5122283;27;20453;-66
2022/08/26 06:28:04;;;;;;;16.90;3.88;;;20.60;99.90;;;;;;5122057;27;20039;-66
2022/08/26 06:30:30;;;;;;;17.80;3.92;;;20.60;99.90;;;;;;5110484;27;20047;-66
2022/08/26 06:32:56;;;;;;;13.57;3.72;;;20.60;99.90;;;;;;5098915;27;20163;-66
2022/08/26 06:35:22;;;;;;;13.25;3.60;;;20.60;99.90;;;;;;5122050;27;20601;-66
2022/08/26 06:37:47;;;;;;;14.10;3.75;;;20.60;99.90;;;;;;5128714;27;20050;-67
2022/08/26 06:40:13;;;;;;;19.27;4.72;;;20.60;99.90;;;;;;5138506;27;20552;-67
2022/08/26 06:42:40;;;;;;;13.35;3.80;;;20.60;99.90;;;;;;5127489;27;20047;-67
2022/08/26 06:45:06;;;;;;;13.77;3.70;;;20.60;99.90;;;;;;5120137;27;20054;-66
2022/08/26 06:47:32;;;;;;;15.43;4.32;;;20.60;99.90;;;;;;5120298;27;20055;-66
2022/08/26 06:49:57;;;;;;;17.30;4.28;;;20.60;99.90;;;;;;5134400;27;20396;-67
2022/08/26 06:52:23;;;;;;;10.25;3.65;;;20.60;99.90;;;;;;5115250;27;20968;-66
2022/08/26 06:54:49;;;;;;;13.55;3.95;;;20.60;99.90;;;;;;5130213;27;20511;-67
2022/08/26 06:57:15;;;;;;;16.58;3.67;;;20.60;99.90;;;;;;5105368;27;20123;-66
2022/08/26 06:59:41;;;;;;;18.80;3.92;;;20.60;99.90;;;;;;5136157;27;20596;-66
2022/08/26 07:02:07;;;;;;;15.25;3.20;;;20.60;99.90;;;;;;5102212;27;20399;-67
2022/08/26 07:04:33;;;;;;;13.52;4.22;;;20.60;99.90;;;;;;5121748;27;20066;-67
2022/08/26 07:06:59;;;;;;;16.40;3.08;;;20.60;99.90;;;;;;5104024;27;20043;-66
2022/08/26 07:09:28;;;;;;;14.02;3.40;;;20.70;99.90;;;;;;5123386;27;20038;-67
2022/08/26 07:11:55;;;;;;;11.35;3.10;;;20.60;99.90;;;;;;5104417;27;20062;-67
2022/08/26 07:14:21;;;;;;;11.50;2.97;;;20.60;99.90;;;;;;5124740;27;20042;-67
2022/08/26 07:16:48;;;;;;;12.27;2.80;;;20.60;99.90;;;;;;5114863;27;20124;-67
2022/08/26 07:19:16;;;;;;;16.55;3.17;;;20.70;99.90;;;;;;5121568;27;20043;-66
2022/08/26 07:21:41;;;;;;;13.05;2.67;;;20.70;99.90;;;;;;5095730;27;20107;-66
2022/08/26 07:24:08;;;;;;;11.98;2.78;;;20.70;99.90;;;;;;5105839;27;20043;-67
2022/08/26 07:26:33;;;;;;;11.07;2.28;;;20.70;99.90;;;;;;5124835;27;20675;-66
2022/08/26 07:29:00;;;;;;;10.80;2.15;;;20.70;99.90;;;;;;5141550;27;20035;-66
2022/08/26 07:31:29;;;;;;;10.80;2.75;;;20.70;99.90;;;;;;5107075;27;20601;-66
2022/08/26 07:33:56;;;;;;;16.33;2.85;;;20.70;99.90;;;;;;5125837;27;20070;-67
2022/08/26 07:36:23;;;;;;;14.23;3.17;;;20.70;99.90;;;;;;5108135;27;20303;-66
2022/08/26 07:38:49;;;;;;;15.45;2.35;;;20.70;99.90;;;;;;5089772;27;20372;-67
2022/08/26 07:41:17;;;;;;;14.40;2.50;;;20.70;99.90;;;;;;5108614;27;20066;-66
2022/08/26 07:43:44;;;;;;;12.40;2.75;;;20.70;99.90;;;;;;5092139;27;20050;-66
2022/08/26 07:46:17;;;;;;;14.43;2.78;;;20.60;99.90;;;;;;5109613;27;20528;-67
2022/08/26 07:48:44;;;;;;;11.60;2.17;;;20.60;99.90;;;;;;5114883;27;20039;-67
2022/08/26 07:51:09;;;;;;;11.55;2.08;;;20.60;99.90;;;;;;5110634;27;20171;-67
2022/08/26 07:53:35;;;;;;;11.52;2.22;;;20.60;99.90;;;;;;5092323;27;20118;-66
2022/08/26 07:56:01;;;;;;;13.95;2.15;;;20.60;99.90;;;;;;5142157;27;20034;-66
2022/08/26 07:58:27;;;;;;;12.65;2.05;;;20.60;99.90;;;;;;5133277;27;20054;-66
2022/08/26 08:00:54;;;;;;;11.75;3.17;;;20.60;99.90;;;;;;5127666;27;20123;-67
2022/08/26 08:03:20;;;;;;;10.23;1.60;;;20.60;99.90;;;;;;5109724;27;20566;-67
2022/08/26 08:05:47;;;;;;;10.43;2.53;;;20.60;99.90;;;;;;5127057;27;20043;-67
2022/08/26 08:08:13;;;;;;;12.40;1.75;;;20.60;99.90;;;;;;5127584;27;20043;-66
2022/08/26 08:10:40;;;;;;;13.57;2.10;;;20.60;99.90;;;;;;5127998;27;20035;-66
2022/08/26 08:13:06;;;;;;;8.57;1.65;;;20.60;99.90;;;;;;5111925;27;20434;-66
2022/08/26 08:15:33;;;;;;;10.70;1.85;;;20.60;99.90;;;;;;5115502;27;20027;-66
2022/08/26 08:17:59;;;;;;;11.07;1.90;;;20.60;99.90;;;;;;5132605;27;20042;-67
2022/08/26 08:20:25;;;;;;;10.60;1.98;;;20.60;99.90;;;;;;5145078;27;20126;-67
2022/08/26 08:22:52;;;;;;;8.80;1.60;;;20.60;99.90;;;;;;5128880;27;20477;-66
2022/08/26 08:25:18;;;;;;;9.13;2.03;;;20.60;99.90;;;;;;5113727;27;20035;-66
2022/08/26 08:27:44;;;;;;;9.27;1.50;;;20.60;99.90;;;;;;5112163;27;20073;-66
2022/08/26 08:30:12;;;;;;;11.43;2.03;;;20.60;99.90;;;;;;5116971;27;20649;-67
2022/08/26 08:32:38;;;;;;;12.98;2.03;;;20.60;99.90;;;;;;5134234;27;20414;-67
2022/08/26 08:35:06;;;;;;;8.80;1.70;;;20.60;99.90;;;;;;5130731;27;20045;-67
2022/08/26 08:37:32;;;;;;;13.27;1.80;;;20.60;99.90;;;;;;5112579;27;20521;-66
2022/08/26 08:39:58;;;;;;;10.00;1.77;;;20.60;99.90;;;;;;5121446;27;20039;-66
2022/08/26 08:42:40;;;;;;;10.23;1.92;;;20.60;99.90;;;;;;5132596;27;20560;-67
2022/08/26 08:45:14;;;;;;;11.90;2.15;;;20.50;99.90;;;;;;5124514;27;20134;-66
2022/08/26 08:47:51;;;;;;;12.20;2.58;;;20.50;99.90;;;;;;5130895;27;20082;-67
2022/08/26 08:50:23;;;;;;;11.65;1.60;;;20.50;99.90;;;;;;5124712;27;20049;-66
2022/08/26 08:53:01;;;;;;;9.75;1.80;;;20.50;99.90;;;;;;5112058;27;20035;-66
2022/08/26 08:55:35;;;;;;;11.73;2.63;;;20.50;99.90;;;;;;5120599;27;20035;-66
2022/08/26 08:58:06;;;;;;;10.25;2.08;;;20.50;99.90;;;;;;5113578;27;20047;-66
2022/08/26 09:00:47;;;;;;;11.63;2.00;;;20.50;99.90;;;;;;5122686;27;20054;-66
2022/08/26 09:03:13;;;;;;;12.43;1.80;;;20.50;99.90;;;;;;5131353;27;20511;-66
2022/08/26 09:05:43;;;;;;;12.75;2.10;;;20.50;99.90;;;;;;5131373;27;20043;-66
2022/08/26 09:08:20;;;;;;;10.70;2.42;;;20.60;99.90;;;;;;5113785;27;20039;-66
2022/08/26 09:10:53;;;;;;;10.63;2.00;;;20.60;99.90;;;;;;5128291;27;20054;-66
2022/08/26 09:13:19;;;;;;;12.48;2.10;;;20.70;99.90;;;;;;5131328;27;20043;-66
2022/08/26 09:16:16;;;;;;;13.98;2.25;;;20.70;99.90;;;;;;5113639;27;20042;-67
2022/08/26 09:19:03;;;;;;;16.15;2.50;;;20.80;99.90;;;;;;5136060;27;20122;-66
2022/08/26 09:21:30;;;;;;;12.30;1.80;;;20.80;99.90;;;;;;5109431;27;20428;-67
2022/08/26 09:23:56;;;;;;;6.63;1.92;;;20.80;99.90;;;;;;5131498;27;20043;-66
2022/08/26 09:26:42;;;;;;;12.45;1.73;;;20.90;99.90;;;;;;5111649;27;20055;-66
2022/08/26 09:29:23;;;;;;;12.18;2.78;;;20.90;99.90;;;;;;5145490;27;20388;-66
2022/08/26 09:31:49;;;;;;;11.20;2.00;;;20.90;99.90;;;;;;5120882;27;20152;-66
2022/08/26 09:34:20;;;;;;;12.90;2.10;;;20.90;99.90;;;;;;5130629;27;20074;-67
2022/08/26 09:36:47;;;;;;;8.15;1.98;;;20.90;99.90;;;;;;5134691;27;20051;-67
2022/08/26 09:39:22;;;;;;;9.27;2.13;;;20.90;99.90;;;;;;5132665;27;20038;-66
2022/08/26 09:42:19;;;;;;;10.40;2.03;;;20.90;99.90;;;;;;5143056;27;20039;-66
2022/08/26 09:44:58;;;;;;;16.27;2.75;;;20.90;99.90;;;;;;5094915;28;20081;-66
2022/08/26 09:47:31;;;;;;;14.07;2.60;;;20.90;99.90;;;;;;5088787;28;20059;-66
2022/08/26 09:50:24;;;;;;;11.57;2.50;;;20.90;99.90;;;;;;5088986;28;20487;-66
2022/08/26 09:53:13;;;;;;;13.40;2.30;;;20.90;99.90;;;;;;5079221;28;20132;-66
2022/08/26 09:55:41;;;;;;;13.98;2.25;;;20.90;99.90;;;;;;5088543;28;20044;-66
2022/08/26 09:58:12;;;;;;;12.45;2.80;;;20.90;99.90;;;;;;5086867;28;20040;-66
2022/08/26 10:00:39;;;;;;;;;;;20.80;99.90;;;;;;5086604;28;20412;-67
2022/08/26 10:03:11;;;;;;;9.82;1.88;;;20.90;99.90;;;;;;5070922;28;19973;-67
2022/08/26 10:05:36;;;;;;;16.95;2.15;;;20.80;99.90;;;;;;5086816;28;20090;-66
2022/08/26 10:08:17;;;;;;;12.82;2.40;;;20.80;99.90;;;;;;5086901;28;20068;-66
2022/08/26 10:10:44;;;;;;;8.32;2.10;;;20.70;99.90;;;;;;5088456;28;20040;-66
2022/08/26 10:13:16;;;;;;;17.30;2.67;;;20.70;99.90;;;;;;5086402;28;20043;-67
2022/08/26 10:16:05;;;;;;;13.07;2.30;;;20.70;99.90;;;;;;5088871;28;20118;-67
2022/08/26 10:18:36;;;;;;;13.95;2.47;;;20.60;99.90;;;;;;5076493;28;20650;-67
2022/08/26 10:21:10;;;;;;;;;;;20.60;99.90;;;;;;5088803;28;20036;-66
2022/08/26 10:23:42;;;;;;;13.90;1.98;;;20.60;99.90;;;;;;5087156;28;19946;-66
2022/08/26 10:26:12;;;;;;;9.80;1.58;;;20.60;99.90;;;;;;5069303;28;20715;-66
2022/08/26 10:28:41;;;;;;;13.23;2.20;;;20.60;99.90;;;;;;5087688;28;20055;-66
2022/08/26 10:31:48;;;;;;;10.25;2.05;;;20.50;99.90;;;;;;5087452;28;20051;-66
2022/08/26 10:34:16;;;;;;;13.50;2.30;;;20.50;99.90;;;;;;5087811;28;20040;-66
2022/08/26 10:36:52;;;;;;;8.93;1.88;;;20.50;99.90;;;;;;5087436;28;20059;-66
2022/08/26 10:39:42;;;;;;;8.68;1.80;;;20.50;99.90;;;;;;5087546;28;20425;-66
2022/08/26 10:42:34;;;;;;;12.93;1.80;;;20.50;99.90;;;;;;5087975;28;20043;-67
2022/08/26 10:45:13;;;;;;;10.50;1.85;;;20.50;99.90;;;;;;5096221;28;20316;-66
2022/08/26 10:48:00;;;;;;;9.25;2.22;;;20.50;99.90;;;;;;5089899;28;20093;-66
2022/08/26 10:50:37;;;;;;;12.38;2.20;;;20.50;99.90;;;;;;5103773;28;20043;-67
2022/08/26 10:53:35;;;;;;;11.13;1.95;;;20.60;99.90;;;;;;5107754;28;20076;-66
2022/08/26 10:56:12;;;;;;;10.75;1.85;;;20.60;99.90;;;;;;5076742;28;20075;-67
2022/08/26 10:59:04;;;;;;;9.98;1.75;;;20.70;99.90;;;;;;5078439;28;21634;-66
2022/08/26 11:01:53;;;;;;;9.00;1.42;;;20.70;99.90;;;;;;5066893;28;20059;-66
2022/08/26 11:04:41;;;;;;;8.45;1.63;;;20.70;99.90;;;;;;5073908;28;20051;-66
2022/08/26 11:07:44;;;;;;;7.80;1.58;;;20.70;99.90;;;;;;5075390;28;20492;-66
2022/08/26 11:10:19;;;;;;;7.05;1.73;;;20.80;99.90;;;;;;5071178;28;20056;-67
2022/08/26 11:13:03;;;;;;;7.68;1.50;;;20.80;99.90;;;;;;5076092;28;20043;-66
2022/08/26 11:15:29;;;;;;;11.80;1.65;;;20.90;99.90;;;;;;5077697;28;20047;-66
2022/08/26 11:18:01;;;;;;;8.60;1.83;;;20.90;99.90;;;;;;5083894;28;20040;-66
2022/08/26 11:20:34;;;;;;;6.72;1.55;;;20.90;99.90;;;;;;5078986;28;20437;-66
2022/08/26 11:23:15;;;;;;;7.75;2.00;;;20.80;99.90;;;;;;5083375;28;20072;-66
2022/08/26 11:26:09;;;;;;;9.73;1.50;;;20.80;99.90;;;;;;5079382;28;20047;-70
2022/08/26 11:28:38;;;;;;;9.10;2.00;;;20.80;99.90;;;;;;5082207;28;20044;-70
2022/08/26 11:31:08;;;;;;;8.20;1.77;;;20.80;99.90;;;;;;5072780;28;20039;-70
2022/08/26 11:33:52;;;;;;;9.02;1.80;;;20.80;99.90;;;;;;5084632;28;20085;-70
2022/08/26 11:36:33;;;;;;;8.60;1.98;;;20.80;99.90;;;;;;5093362;28;20040;-71
2022/08/26 11:39:01;;;;;;;14.40;2.15;;;20.70;99.90;;;;;;5084753;28;20365;-70
2022/08/26 11:41:28;;;;;;;7.22;1.70;;;20.70;99.90;;;;;;5079397;28;20514;-70
2022/08/26 11:43:56;;;;;;;10.30;2.10;;;20.70;99.90;;;;;;5077550;28;20063;-71
2022/08/26 11:46:26;;;;;;;11.32;2.83;;;20.60;99.90;;;;;;5110781;27;20051;-71
2022/08/26 11:49:00;;;;;;;9.73;2.85;;;20.70;99.90;;;;;;5083133;28;20071;-69
2022/08/26 11:51:25;;;;;;;7.65;2.28;;;20.70;99.90;;;;;;5085127;28;20131;-70
2022/08/26 11:54:09;;;;;;;9.90;1.88;;;20.60;99.90;;;;;;5076939;28;20851;-70
2022/08/26 11:56:35;;;;;;;10.20;2.15;;;20.50;99.90;;;;;;5071904;28;20054;-70
2022/08/26 11:59:08;;;;;;;10.88;2.10;;;20.50;99.90;;;;;;5081032;28;20047;-70
2022/08/26 12:01:41;;;;;;;14.50;2.55;;;20.50;99.90;;;;;;5081638;28;20102;-71
2022/08/26 12:04:11;;;;;;;14.15;2.88;;;20.50;99.90;;;;;;5082876;28;20048;-71
2022/08/26 12:06:47;;;;;;;12.52;2.20;;;20.50;99.90;;;;;;5084507;28;20515;-71
2022/08/26 12:09:22;;;;;;;16.38;3.70;;;20.40;99.90;;;;;;5082321;28;20044;-71
2022/08/26 12:11:48;;;;;;;20.70;2.72;;;20.40;99.90;;;;;;5083326;28;20051;-71
2022/08/26 12:14:20;;;;;;;13.73;2.05;;;20.40;99.90;;;;;;5086772;28;20070;-71
2022/08/26 12:16:46;;;;;;;10.13;2.20;;;20.40;99.90;;;;;;5086870;28;20059;-72
2022/08/26 12:19:28;;;;;;;15.88;2.72;;;20.40;99.90;;;;;;5087022;28;20453;-70
2022/08/26 12:21:56;;;;;;;9.63;2.20;;;20.30;99.90;;;;;;5089392;28;20557;-71
2022/08/26 12:24:22;;;;;;;13.00;2.10;;;20.20;99.90;;;;;;5088546;28;20036;-71
2022/08/26 12:26:48;;;;;;;9.15;1.90;;;20.20;99.90;;;;;;5088085;28;20036;-70
2022/08/26 12:29:26;;;;;;;12.60;2.17;;;20.20;99.90;;;;;;5072142;28;20457;-70
2022/08/26 12:32:16;;;;;;;12.25;2.13;;;20.20;99.90;;;;;;5119333;27;20040;-70
2022/08/26 12:34:46;;;;;;;6.80;1.88;;;20.20;99.90;;;;;;5070879;28;20056;-70
2022/08/26 12:37:13;;;;;;;10.27;1.80;;;20.20;99.90;;;;;;5089760;28;20039;-71
2022/08/26 12:39:42;;;;;;;8.88;1.80;;;20.20;99.90;;;;;;5088610;28;20432;-71
2022/08/26 12:42:16;;;;;;;8.70;1.80;;;20.30;99.90;;;;;;5070221;28;20048;-71
2022/08/26 12:45:05;;;;;;;8.10;1.85;;;20.30;99.90;;;;;;5110099;27;20049;-70
2022/08/26 12:47:37;;;;;;;8.27;1.90;;;20.30;99.90;;;;;;5111996;27;20240;-71
2022/08/26 12:50:19;;;;;;;7.13;1.80;;;20.30;99.90;;;;;;5150230;27;20407;-71
2022/08/26 12:53:08;;;;;;;14.43;2.08;;;20.30;99.90;;;;;;5143615;27;20064;-71
2022/08/26 12:55:41;;;;;;;11.43;2.60;;;20.30;99.90;;;;;;5117288;27;20419;-70
2022/08/26 12:58:19;;;;;;;11.48;2.28;;;20.30;99.90;;;;;;5128448;27;20456;-71